sensor_id;sensor_type;location;lat;lon;timestamp;P1;durP1;ratioP1;P2;durP2;ratioP2
28960;SDS011;16068;42.896;20.868;2022-12-18T00:01:45;5.18;;;2.65;;
28960;SDS011;16068;42.896;20.868;2022-12-18T00:04:31;3.47;;;2.33;;
28960;SDS011;16068;42.896;20.868;2022-12-18T00:07:17;5.00;;;2.55;;
28960;SDS011;16068;42.896;20.868;2022-12-18T00:10:04;3.47;;;2.30;;
28960;SDS011;16068;42.896;20.868;2022-12-18T00:12:50;4.38;;;2.20;;
28960;SDS011;16068;42.896;20.868;2022-12-18T00:15:37;6.95;;;2.55;;
28960;SDS011;16068;42.896;20.868;2022-12-18T00:18:24;3.47;;;2.50;;
28960;SDS011;16068;42.896;20.868;2022-12-18T00:21:11;3.63;;;2.33;;
28960;SDS011;16068;42.896;20.868;2022-12-18T00:23:58;7.60;;;2.67;;
28960;SDS011;16068;42.896;20.868;2022-12-18T00:26:44;11.73;;;2.65;;
28960;SDS011;16068;42.896;20.868;2022-12-18T00:29:30;7.72;;;2.95;;
28960;SDS011;16068;42.896;20.868;2022-12-18T00:32:15;6.15;;;2.40;;
28960;SDS011;16068;42.896;20.868;2022-12-18T00:35:01;3.40;;;2.30;;
28960;SDS011;16068;42.896;20.868;2022-12-18T00:37:48;4.85;;;2.30;;
28960;SDS011;16068;42.896;20.868;2022-12-18T00:40:34;6.43;;;2.38;;
28960;SDS011;16068;42.896;20.868;2022-12-18T00:43:20;5.35;;;2.80;;
28960;SDS011;16068;42.896;20.868;2022-12-18T00:46:06;4.55;;;2.55;;
28960;SDS011;16068;42.896;20.868;2022-12-18T00:48:52;10.20;;;2.60;;
28960;SDS011;16068;42.896;20.868;2022-12-18T00:51:38;6.13;;;2.75;;
28960;SDS011;16068;42.896;20.868;2022-12-18T00:54:24;3.20;;;2.20;;
28960;SDS011;16068;42.896;20.868;2022-12-18T00:57:11;3.92;;;2.20;;
28960;SDS011;16068;42.896;20.868;2022-12-18T00:59:57;3.38;;;2.15;;
28960;SDS011;16068;42.896;20.868;2022-12-18T01:02:43;4.05;;;2.25;;
28960;SDS011;16068;42.896;20.868;2022-12-18T01:05:31;6.93;;;2.10;;
28960;SDS011;16068;42.896;20.868;2022-12-18T01:08:18;3.67;;;2.53;;
28960;SDS011;16068;42.896;20.868;2022-12-18T01:11:08;3.35;;;2.10;;
28960;SDS011;16068;42.896;20.868;2022-12-18T01:16:50;3.80;;;2.28;;
28960;SDS011;16068;42.896;20.868;2022-12-18T01:19:36;6.03;;;2.70;;
28960;SDS011;16068;42.896;20.868;2022-12-18T01:22:22;7.97;;;2.75;;
28960;SDS011;16068;42.896;20.868;2022-12-18T01:25:08;6.13;;;2.58;;
28960;SDS011;16068;42.896;20.868;2022-12-18T01:27:54;10.57;;;2.85;;
28960;SDS011;16068;42.896;20.868;2022-12-18T01:30:40;5.65;;;2.83;;
28960;SDS011;16068;42.896;20.868;2022-12-18T01:33:28;5.65;;;2.90;;
28960;SDS011;16068;42.896;20.868;2022-12-18T01:36:25;5.18;;;2.88;;
28960;SDS011;16068;42.896;20.868;2022-12-18T01:39:12;4.93;;;2.83;;
28960;SDS011;16068;42.896;20.868;2022-12-18T01:42:00;5.93;;;3.22;;
28960;SDS011;16068;42.896;20.868;2022-12-18T01:47:49;4.70;;;2.88;;
28960;SDS011;16068;42.896;20.868;2022-12-18T01:50:40;5.15;;;3.08;;
28960;SDS011;16068;42.896;20.868;2022-12-18T01:53:28;5.28;;;3.13;;
28960;SDS011;16068;42.896;20.868;2022-12-18T01:56:16;10.35;;;3.45;;
28960;SDS011;16068;42.896;20.868;2022-12-18T01:59:04;6.25;;;3.22;;
28960;SDS011;16068;42.896;20.868;2022-12-18T02:01:51;7.20;;;3.25;;
28960;SDS011;16068;42.896;20.868;2022-12-18T02:04:41;5.15;;;3.15;;
28960;SDS011;16068;42.896;20.868;2022-12-18T02:07:51;5.00;;;3.22;;
28960;SDS011;16068;42.896;20.868;2022-12-18T02:13:58;4.93;;;3.10;;
28960;SDS011;16068;42.896;20.868;2022-12-18T02:17:01;5.47;;;3.50;;
28960;SDS011;16068;42.896;20.868;2022-12-18T02:29:03;5.78;;;3.80;;
28960;SDS011;16068;42.896;20.868;2022-12-18T02:31:57;10.70;;;4.13;;
28960;SDS011;16068;42.896;20.868;2022-12-18T02:34:44;6.57;;;3.55;;
28960;SDS011;16068;42.896;20.868;2022-12-18T02:37:33;6.00;;;4.03;;
28960;SDS011;16068;42.896;20.868;2022-12-18T02:40:24;10.77;;;4.38;;
28960;SDS011;16068;42.896;20.868;2022-12-18T02:43:13;7.07;;;4.22;;
28960;SDS011;16068;42.896;20.868;2022-12-18T02:46:00;10.15;;;4.40;;
28960;SDS011;16068;42.896;20.868;2022-12-18T02:49:11;8.90;;;4.13;;
28960;SDS011;16068;42.896;20.868;2022-12-18T02:55:26;7.30;;;4.97;;
28960;SDS011;16068;42.896;20.868;2022-12-18T02:58:26;7.82;;;4.70;;
28960;SDS011;16068;42.896;20.868;2022-12-18T03:04:40;10.63;;;5.53;;
28960;SDS011;16068;42.896;20.868;2022-12-18T03:07:37;8.57;;;5.93;;
28960;SDS011;16068;42.896;20.868;2022-12-18T03:10:34;10.10;;;6.00;;
28960;SDS011;16068;42.896;20.868;2022-12-18T03:13:25;10.43;;;6.50;;
28960;SDS011;16068;42.896;20.868;2022-12-18T03:16:20;11.00;;;6.97;;
28960;SDS011;16068;42.896;20.868;2022-12-18T03:19:15;13.38;;;6.85;;
28960;SDS011;16068;42.896;20.868;2022-12-18T03:22:02;11.20;;;6.82;;
28960;SDS011;16068;42.896;20.868;2022-12-18T03:24:58;10.40;;;6.55;;
28960;SDS011;16068;42.896;20.868;2022-12-18T03:27:47;11.52;;;7.22;;
28960;SDS011;16068;42.896;20.868;2022-12-18T03:30:35;17.05;;;7.53;;
28960;SDS011;16068;42.896;20.868;2022-12-18T03:33:45;10.38;;;6.43;;
28960;SDS011;16068;42.896;20.868;2022-12-18T03:36:39;10.00;;;6.25;;
28960;SDS011;16068;42.896;20.868;2022-12-18T03:39:25;10.57;;;6.22;;
28960;SDS011;16068;42.896;20.868;2022-12-18T03:42:15;9.35;;;6.15;;
28960;SDS011;16068;42.896;20.868;2022-12-18T03:45:32;10.27;;;6.50;;
28960;SDS011;16068;42.896;20.868;2022-12-18T03:51:21;9.73;;;6.03;;
28960;SDS011;16068;42.896;20.868;2022-12-18T03:54:09;11.18;;;6.93;;
28960;SDS011;16068;42.896;20.868;2022-12-18T03:57:25;11.02;;;7.03;;
28960;SDS011;16068;42.896;20.868;2022-12-18T04:00:13;10.50;;;7.10;;
28960;SDS011;16068;42.896;20.868;2022-12-18T04:03:17;10.90;;;6.80;;
28960;SDS011;16068;42.896;20.868;2022-12-18T04:06:10;15.13;;;8.05;;
28960;SDS011;16068;42.896;20.868;2022-12-18T04:08:58;12.80;;;7.20;;
28960;SDS011;16068;42.896;20.868;2022-12-18T04:11:45;13.90;;;7.95;;
28960;SDS011;16068;42.896;20.868;2022-12-18T04:14:33;18.30;;;9.85;;
28960;SDS011;16068;42.896;20.868;2022-12-18T04:17:24;10.32;;;6.82;;
28960;SDS011;16068;42.896;20.868;2022-12-18T04:20:10;12.05;;;7.38;;
28960;SDS011;16068;42.896;20.868;2022-12-18T04:23:00;13.35;;;7.47;;
28960;SDS011;16068;42.896;20.868;2022-12-18T04:25:47;13.30;;;7.80;;
28960;SDS011;16068;42.896;20.868;2022-12-18T04:28:40;10.93;;;6.88;;
28960;SDS011;16068;42.896;20.868;2022-12-18T04:31:27;13.55;;;6.93;;
28960;SDS011;16068;42.896;20.868;2022-12-18T04:34:13;11.98;;;7.30;;
28960;SDS011;16068;42.896;20.868;2022-12-18T04:37:05;12.05;;;7.57;;
28960;SDS011;16068;42.896;20.868;2022-12-18T04:39:51;13.07;;;7.30;;
28960;SDS011;16068;42.896;20.868;2022-12-18T04:42:44;12.05;;;7.35;;
28960;SDS011;16068;42.896;20.868;2022-12-18T04:45:30;15.75;;;7.45;;
28960;SDS011;16068;42.896;20.868;2022-12-18T04:48:16;15.80;;;7.78;;
28960;SDS011;16068;42.896;20.868;2022-12-18T04:51:03;11.00;;;6.75;;
28960;SDS011;16068;42.896;20.868;2022-12-18T04:53:50;11.32;;;6.90;;
28960;SDS011;16068;42.896;20.868;2022-12-18T04:56:36;13.50;;;7.32;;
28960;SDS011;16068;42.896;20.868;2022-12-18T04:59:21;11.13;;;7.25;;
28960;SDS011;16068;42.896;20.868;2022-12-18T05:02:08;12.82;;;7.00;;
28960;SDS011;16068;42.896;20.868;2022-12-18T05:04:54;11.07;;;6.93;;
28960;SDS011;16068;42.896;20.868;2022-12-18T05:07:40;10.40;;;6.50;;
28960;SDS011;16068;42.896;20.868;2022-12-18T05:10:26;23.45;;;7.57;;
28960;SDS011;16068;42.896;20.868;2022-12-18T05:13:12;11.95;;;7.22;;
28960;SDS011;16068;42.896;20.868;2022-12-18T05:15:58;11.55;;;7.25;;
28960;SDS011;16068;42.896;20.868;2022-12-18T05:18:44;14.00;;;6.35;;
28960;SDS011;16068;42.896;20.868;2022-12-18T05:21:29;14.05;;;7.10;;
28960;SDS011;16068;42.896;20.868;2022-12-18T05:24:15;11.75;;;7.18;;
28960;SDS011;16068;42.896;20.868;2022-12-18T05:27:01;16.00;;;6.53;;
28960;SDS011;16068;42.896;20.868;2022-12-18T05:29:47;13.90;;;6.60;;
28960;SDS011;16068;42.896;20.868;2022-12-18T05:32:33;10.10;;;6.30;;
28960;SDS011;16068;42.896;20.868;2022-12-18T05:35:19;10.20;;;5.70;;
28960;SDS011;16068;42.896;20.868;2022-12-18T05:38:05;9.77;;;6.00;;
28960;SDS011;16068;42.896;20.868;2022-12-18T05:40:51;10.30;;;5.60;;
28960;SDS011;16068;42.896;20.868;2022-12-18T05:43:38;9.02;;;5.15;;
28960;SDS011;16068;42.896;20.868;2022-12-18T05:46:25;8.93;;;5.32;;
28960;SDS011;16068;42.896;20.868;2022-12-18T05:49:12;9.93;;;5.90;;
28960;SDS011;16068;42.896;20.868;2022-12-18T05:51:58;13.20;;;6.70;;
28960;SDS011;16068;42.896;20.868;2022-12-18T05:54:43;13.98;;;6.65;;
28960;SDS011;16068;42.896;20.868;2022-12-18T05:57:30;10.65;;;4.97;;
28960;SDS011;16068;42.896;20.868;2022-12-18T06:00:16;15.25;;;5.47;;
28960;SDS011;16068;42.896;20.868;2022-12-18T06:03:02;10.32;;;4.90;;
28960;SDS011;16068;42.896;20.868;2022-12-18T06:05:48;19.20;;;5.88;;
28960;SDS011;16068;42.896;20.868;2022-12-18T06:08:34;11.07;;;5.07;;
28960;SDS011;16068;42.896;20.868;2022-12-18T06:11:21;15.70;;;5.20;;
28960;SDS011;16068;42.896;20.868;2022-12-18T06:14:09;14.18;;;5.55;;
28960;SDS011;16068;42.896;20.868;2022-12-18T06:16:55;12.02;;;4.72;;
28960;SDS011;16068;42.896;20.868;2022-12-18T06:19:41;7.40;;;3.65;;
28960;SDS011;16068;42.896;20.868;2022-12-18T06:22:27;10.88;;;4.80;;
28960;SDS011;16068;42.896;20.868;2022-12-18T06:25:13;16.50;;;4.45;;
28960;SDS011;16068;42.896;20.868;2022-12-18T06:27:59;10.65;;;3.95;;
28960;SDS011;16068;42.896;20.868;2022-12-18T06:30:45;10.70;;;4.60;;
28960;SDS011;16068;42.896;20.868;2022-12-18T06:33:32;7.97;;;4.32;;
28960;SDS011;16068;42.896;20.868;2022-12-18T06:36:18;36.88;;;7.07;;
28960;SDS011;16068;42.896;20.868;2022-12-18T06:39:05;9.73;;;4.35;;
28960;SDS011;16068;42.896;20.868;2022-12-18T06:41:51;17.35;;;5.25;;
28960;SDS011;16068;42.896;20.868;2022-12-18T06:44:37;14.50;;;4.53;;
28960;SDS011;16068;42.896;20.868;2022-12-18T06:47:23;14.23;;;5.32;;
28960;SDS011;16068;42.896;20.868;2022-12-18T06:50:09;8.15;;;5.35;;
28960;SDS011;16068;42.896;20.868;2022-12-18T06:52:55;9.70;;;5.40;;
28960;SDS011;16068;42.896;20.868;2022-12-18T06:55:41;8.60;;;4.90;;
28960;SDS011;16068;42.896;20.868;2022-12-18T06:58:27;8.25;;;4.65;;
28960;SDS011;16068;42.896;20.868;2022-12-18T07:01:13;8.13;;;4.78;;
28960;SDS011;16068;42.896;20.868;2022-12-18T07:03:59;9.13;;;4.95;;
28960;SDS011;16068;42.896;20.868;2022-12-18T07:06:45;12.15;;;4.40;;
28960;SDS011;16068;42.896;20.868;2022-12-18T07:09:31;11.95;;;4.90;;
28960;SDS011;16068;42.896;20.868;2022-12-18T07:12:17;8.45;;;4.82;;
28960;SDS011;16068;42.896;20.868;2022-12-18T07:15:04;6.57;;;3.92;;
28960;SDS011;16068;42.896;20.868;2022-12-18T07:17:51;11.77;;;4.68;;
28960;SDS011;16068;42.896;20.868;2022-12-18T07:20:37;8.30;;;4.93;;
28960;SDS011;16068;42.896;20.868;2022-12-18T07:23:23;7.85;;;4.50;;
28960;SDS011;16068;42.896;20.868;2022-12-18T07:26:10;7.18;;;4.85;;
28960;SDS011;16068;42.896;20.868;2022-12-18T07:28:57;7.90;;;4.45;;
28960;SDS011;16068;42.896;20.868;2022-12-18T07:31:44;10.73;;;6.18;;
28960;SDS011;16068;42.896;20.868;2022-12-18T07:34:30;29.23;;;16.00;;
28960;SDS011;16068;42.896;20.868;2022-12-18T07:37:15;36.78;;;17.60;;
28960;SDS011;16068;42.896;20.868;2022-12-18T07:40:01;39.38;;;20.05;;
28960;SDS011;16068;42.896;20.868;2022-12-18T07:42:47;31.25;;;19.08;;
28960;SDS011;16068;42.896;20.868;2022-12-18T07:45:33;39.33;;;20.77;;
28960;SDS011;16068;42.896;20.868;2022-12-18T07:48:19;38.95;;;22.15;;
28960;SDS011;16068;42.896;20.868;2022-12-18T07:51:05;36.95;;;21.83;;
28960;SDS011;16068;42.896;20.868;2022-12-18T07:53:51;39.65;;;22.08;;
28960;SDS011;16068;42.896;20.868;2022-12-18T07:56:38;37.50;;;22.00;;
28960;SDS011;16068;42.896;20.868;2022-12-18T07:59:24;41.80;;;22.58;;
28960;SDS011;16068;42.896;20.868;2022-12-18T08:02:10;40.67;;;21.73;;
28960;SDS011;16068;42.896;20.868;2022-12-18T08:04:56;42.20;;;22.58;;
28960;SDS011;16068;42.896;20.868;2022-12-18T08:07:43;35.72;;;21.15;;
28960;SDS011;16068;42.896;20.868;2022-12-18T08:10:29;39.05;;;21.35;;
28960;SDS011;16068;42.896;20.868;2022-12-18T08:13:15;42.58;;;22.38;;
28960;SDS011;16068;42.896;20.868;2022-12-18T08:16:03;41.97;;;21.33;;
28960;SDS011;16068;42.896;20.868;2022-12-18T08:18:52;44.08;;;23.30;;
28960;SDS011;16068;42.896;20.868;2022-12-18T08:21:39;42.30;;;22.65;;
28960;SDS011;16068;42.896;20.868;2022-12-18T08:24:25;38.70;;;22.13;;
28960;SDS011;16068;42.896;20.868;2022-12-18T08:27:11;40.35;;;22.70;;
28960;SDS011;16068;42.896;20.868;2022-12-18T08:30:14;41.63;;;22.13;;
28960;SDS011;16068;42.896;20.868;2022-12-18T08:33:00;38.03;;;21.00;;
28960;SDS011;16068;42.896;20.868;2022-12-18T08:35:45;36.38;;;21.05;;
28960;SDS011;16068;42.896;20.868;2022-12-18T08:38:31;36.72;;;21.25;;
28960;SDS011;16068;42.896;20.868;2022-12-18T08:41:18;40.70;;;22.42;;
28960;SDS011;16068;42.896;20.868;2022-12-18T08:44:04;43.03;;;22.02;;
28960;SDS011;16068;42.896;20.868;2022-12-18T08:47:09;39.10;;;21.88;;
28960;SDS011;16068;42.896;20.868;2022-12-18T08:49:54;41.92;;;21.83;;
28960;SDS011;16068;42.896;20.868;2022-12-18T08:52:40;46.65;;;25.35;;
28960;SDS011;16068;42.896;20.868;2022-12-18T08:55:26;45.25;;;23.75;;
28960;SDS011;16068;42.896;20.868;2022-12-18T08:58:11;47.08;;;22.98;;
28960;SDS011;16068;42.896;20.868;2022-12-18T09:01:01;41.33;;;21.77;;
28960;SDS011;16068;42.896;20.868;2022-12-18T09:03:48;122.13;;;60.13;;
28960;SDS011;16068;42.896;20.868;2022-12-18T09:06:35;62.58;;;34.35;;
28960;SDS011;16068;42.896;20.868;2022-12-18T09:09:22;71.88;;;37.13;;
28960;SDS011;16068;42.896;20.868;2022-12-18T09:12:08;42.92;;;22.80;;
28960;SDS011;16068;42.896;20.868;2022-12-18T09:14:54;43.53;;;22.75;;
28960;SDS011;16068;42.896;20.868;2022-12-18T09:17:42;45.42;;;23.75;;
28960;SDS011;16068;42.896;20.868;2022-12-18T09:20:27;44.72;;;24.58;;
28960;SDS011;16068;42.896;20.868;2022-12-18T09:23:15;57.25;;;29.02;;
28960;SDS011;16068;42.896;20.868;2022-12-18T09:26:01;40.50;;;24.42;;
28960;SDS011;16068;42.896;20.868;2022-12-18T09:28:47;46.92;;;25.52;;
28960;SDS011;16068;42.896;20.868;2022-12-18T09:31:34;49.40;;;28.10;;
28960;SDS011;16068;42.896;20.868;2022-12-18T09:34:20;59.00;;;32.85;;
28960;SDS011;16068;42.896;20.868;2022-12-18T09:37:07;66.68;;;34.25;;
28960;SDS011;16068;42.896;20.868;2022-12-18T09:39:52;46.00;;;25.40;;
28960;SDS011;16068;42.896;20.868;2022-12-18T09:42:38;46.33;;;24.65;;
28960;SDS011;16068;42.896;20.868;2022-12-18T09:45:25;39.50;;;23.27;;
28960;SDS011;16068;42.896;20.868;2022-12-18T09:48:16;48.22;;;25.50;;
28960;SDS011;16068;42.896;20.868;2022-12-18T09:51:16;47.88;;;25.35;;
28960;SDS011;16068;42.896;20.868;2022-12-18T09:54:25;44.03;;;23.77;;
28960;SDS011;16068;42.896;20.868;2022-12-18T09:57:15;47.25;;;25.88;;
28960;SDS011;16068;42.896;20.868;2022-12-18T10:00:04;43.60;;;25.08;;
28960;SDS011;16068;42.896;20.868;2022-12-18T10:03:00;48.38;;;26.92;;
28960;SDS011;16068;42.896;20.868;2022-12-18T10:06:11;48.58;;;27.02;;
28960;SDS011;16068;42.896;20.868;2022-12-18T10:09:08;49.40;;;26.27;;
28960;SDS011;16068;42.896;20.868;2022-12-18T10:15:17;50.25;;;27.75;;
28960;SDS011;16068;42.896;20.868;2022-12-18T10:24:55;55.10;;;26.25;;
28960;SDS011;16068;42.896;20.868;2022-12-18T10:27:44;50.22;;;25.65;;
28960;SDS011;16068;42.896;20.868;2022-12-18T10:30:30;48.92;;;25.95;;
28960;SDS011;16068;42.896;20.868;2022-12-18T10:33:17;46.40;;;24.58;;
28960;SDS011;16068;42.896;20.868;2022-12-18T10:36:05;42.45;;;23.48;;
28960;SDS011;16068;42.896;20.868;2022-12-18T10:38:51;43.00;;;24.33;;
28960;SDS011;16068;42.896;20.868;2022-12-18T10:41:37;55.08;;;29.40;;
28960;SDS011;16068;42.896;20.868;2022-12-18T10:44:23;50.05;;;27.52;;
28960;SDS011;16068;42.896;20.868;2022-12-18T10:47:15;48.38;;;26.52;;
28960;SDS011;16068;42.896;20.868;2022-12-18T10:50:02;26.92;;;16.10;;
28960;SDS011;16068;42.896;20.868;2022-12-18T10:53:01;19.55;;;11.55;;
28960;SDS011;16068;42.896;20.868;2022-12-18T10:55:49;34.00;;;11.15;;
28960;SDS011;16068;42.896;20.868;2022-12-18T10:58:38;22.70;;;10.75;;
28960;SDS011;16068;42.896;20.868;2022-12-18T11:01:25;19.20;;;10.07;;
28960;SDS011;16068;42.896;20.868;2022-12-18T11:04:13;22.17;;;10.52;;
28960;SDS011;16068;42.896;20.868;2022-12-18T11:07:03;20.90;;;10.40;;
28960;SDS011;16068;42.896;20.868;2022-12-18T11:10:03;22.05;;;9.63;;
28960;SDS011;16068;42.896;20.868;2022-12-18T11:12:49;28.45;;;10.50;;
28960;SDS011;16068;42.896;20.868;2022-12-18T11:15:35;24.52;;;9.15;;
28960;SDS011;16068;42.896;20.868;2022-12-18T11:18:32;24.90;;;11.55;;
28960;SDS011;16068;42.896;20.868;2022-12-18T11:21:19;23.35;;;10.02;;
28960;SDS011;16068;42.896;20.868;2022-12-18T11:24:07;18.08;;;9.45;;
28960;SDS011;16068;42.896;20.868;2022-12-18T11:27:21;21.20;;;10.23;;
28960;SDS011;16068;42.896;20.868;2022-12-18T11:30:21;26.50;;;9.90;;
28960;SDS011;16068;42.896;20.868;2022-12-18T11:33:21;20.13;;;9.70;;
28960;SDS011;16068;42.896;20.868;2022-12-18T11:36:08;19.10;;;9.15;;
28960;SDS011;16068;42.896;20.868;2022-12-18T11:38:55;15.65;;;9.75;;
28960;SDS011;16068;42.896;20.868;2022-12-18T11:41:56;23.25;;;9.77;;
28960;SDS011;16068;42.896;20.868;2022-12-18T11:45:00;20.60;;;11.07;;
28960;SDS011;16068;42.896;20.868;2022-12-18T11:48:01;23.63;;;10.80;;
28960;SDS011;16068;42.896;20.868;2022-12-18T11:50:59;23.88;;;10.50;;
28960;SDS011;16068;42.896;20.868;2022-12-18T11:53:46;21.45;;;11.68;;
28960;SDS011;16068;42.896;20.868;2022-12-18T11:56:32;18.52;;;10.07;;
28960;SDS011;16068;42.896;20.868;2022-12-18T12:09:38;23.75;;;10.73;;
28960;SDS011;16068;42.896;20.868;2022-12-18T12:29:14;30.17;;;10.27;;
28960;SDS011;16068;42.896;20.868;2022-12-18T12:35:22;24.73;;;10.95;;
28960;SDS011;16068;42.896;20.868;2022-12-18T12:38:23;19.92;;;10.70;;
28960;SDS011;16068;42.896;20.868;2022-12-18T12:41:12;25.52;;;10.05;;
28960;SDS011;16068;42.896;20.868;2022-12-18T12:44:22;22.63;;;10.40;;
28960;SDS011;16068;42.896;20.868;2022-12-18T12:47:14;23.52;;;9.60;;
28960;SDS011;16068;42.896;20.868;2022-12-18T12:50:14;14.30;;;7.90;;
28960;SDS011;16068;42.896;20.868;2022-12-18T12:53:37;37.40;;;15.55;;
28960;SDS011;16068;42.896;20.868;2022-12-18T13:00:05;27.40;;;15.60;;
28960;SDS011;16068;42.896;20.868;2022-12-18T13:03:02;19.83;;;8.23;;
28960;SDS011;16068;42.896;20.868;2022-12-18T13:05:58;18.23;;;7.95;;
28960;SDS011;16068;42.896;20.868;2022-12-18T13:08:53;15.55;;;8.77;;
28960;SDS011;16068;42.896;20.868;2022-12-18T13:11:45;33.90;;;16.90;;
28960;SDS011;16068;42.896;20.868;2022-12-18T13:14:51;28.85;;;15.45;;
28960;SDS011;16068;42.896;20.868;2022-12-18T13:17:37;45.83;;;23.13;;
28960;SDS011;16068;42.896;20.868;2022-12-18T13:20:23;33.45;;;15.07;;
28960;SDS011;16068;42.896;20.868;2022-12-18T13:23:48;31.83;;;12.80;;
28960;SDS011;16068;42.896;20.868;2022-12-18T13:26:34;29.05;;;14.05;;
28960;SDS011;16068;42.896;20.868;2022-12-18T13:32:30;20.75;;;11.40;;
28960;SDS011;16068;42.896;20.868;2022-12-18T13:38:55;53.10;;;21.95;;
28960;SDS011;16068;42.896;20.868;2022-12-18T13:41:22;49.08;;;27.20;;
28960;SDS011;16068;42.896;20.868;2022-12-18T13:50:25;61.97;;;31.63;;
28960;SDS011;16068;42.896;20.868;2022-12-18T13:53:26;80.07;;;40.92;;
28960;SDS011;16068;42.896;20.868;2022-12-18T13:56:23;71.03;;;37.08;;
28960;SDS011;16068;42.896;20.868;2022-12-18T13:59:17;68.03;;;33.25;;
28960;SDS011;16068;42.896;20.868;2022-12-18T14:02:17;61.63;;;31.90;;
28960;SDS011;16068;42.896;20.868;2022-12-18T14:05:21;57.95;;;30.83;;
28960;SDS011;16068;42.896;20.868;2022-12-18T14:08:14;60.10;;;30.45;;
28960;SDS011;16068;42.896;20.868;2022-12-18T14:11:01;71.72;;;35.42;;
28960;SDS011;16068;42.896;20.868;2022-12-18T14:13:49;61.38;;;31.60;;
28960;SDS011;16068;42.896;20.868;2022-12-18T14:16:37;60.00;;;30.20;;
28960;SDS011;16068;42.896;20.868;2022-12-18T14:19:23;60.97;;;30.20;;
28960;SDS011;16068;42.896;20.868;2022-12-18T14:22:27;63.20;;;31.77;;
28960;SDS011;16068;42.896;20.868;2022-12-18T14:25:17;65.40;;;33.67;;
28960;SDS011;16068;42.896;20.868;2022-12-18T14:28:13;65.68;;;29.90;;
28960;SDS011;16068;42.896;20.868;2022-12-18T14:31:00;64.88;;;31.60;;
28960;SDS011;16068;42.896;20.868;2022-12-18T14:33:46;60.65;;;31.50;;
28960;SDS011;16068;42.896;20.868;2022-12-18T14:36:33;71.93;;;34.42;;
28960;SDS011;16068;42.896;20.868;2022-12-18T14:39:18;65.28;;;33.80;;
28960;SDS011;16068;42.896;20.868;2022-12-18T14:42:05;82.90;;;41.15;;
28960;SDS011;16068;42.896;20.868;2022-12-18T14:51:24;64.32;;;33.10;;
28960;SDS011;16068;42.896;20.868;2022-12-18T14:54:14;65.55;;;33.78;;
28960;SDS011;16068;42.896;20.868;2022-12-18T14:57:04;66.43;;;30.40;;
28960;SDS011;16068;42.896;20.868;2022-12-18T15:00:14;76.85;;;33.83;;
28960;SDS011;16068;42.896;20.868;2022-12-18T15:03:01;65.22;;;34.78;;
28960;SDS011;16068;42.896;20.868;2022-12-18T15:05:52;70.60;;;36.17;;
28960;SDS011;16068;42.896;20.868;2022-12-18T15:08:38;83.95;;;40.20;;
28960;SDS011;16068;42.896;20.868;2022-12-18T15:11:45;63.53;;;32.88;;
28960;SDS011;16068;42.896;20.868;2022-12-18T15:20:11;66.22;;;33.50;;
28960;SDS011;16068;42.896;20.868;2022-12-18T15:22:57;66.63;;;31.20;;
28960;SDS011;16068;42.896;20.868;2022-12-18T15:25:44;67.68;;;35.00;;
28960;SDS011;16068;42.896;20.868;2022-12-18T15:28:32;74.82;;;35.83;;
28960;SDS011;16068;42.896;20.868;2022-12-18T15:31:24;79.38;;;39.25;;
28960;SDS011;16068;42.896;20.868;2022-12-18T15:34:19;64.20;;;35.40;;
28960;SDS011;16068;42.896;20.868;2022-12-18T15:37:06;71.50;;;37.25;;
28960;SDS011;16068;42.896;20.868;2022-12-18T15:39:53;78.68;;;36.70;;
28960;SDS011;16068;42.896;20.868;2022-12-18T15:42:39;72.65;;;35.58;;
28960;SDS011;16068;42.896;20.868;2022-12-18T15:45:44;63.75;;;33.00;;
28960;SDS011;16068;42.896;20.868;2022-12-18T15:48:31;68.30;;;33.10;;
28960;SDS011;16068;42.896;20.868;2022-12-18T15:54:16;65.95;;;34.80;;
28960;SDS011;16068;42.896;20.868;2022-12-18T15:57:02;70.43;;;34.50;;
28960;SDS011;16068;42.896;20.868;2022-12-18T16:00:11;78.47;;;39.00;;
28960;SDS011;16068;42.896;20.868;2022-12-18T16:02:58;91.60;;;43.42;;
28960;SDS011;16068;42.896;20.868;2022-12-18T16:05:44;104.57;;;48.97;;
28960;SDS011;16068;42.896;20.868;2022-12-18T16:08:30;84.47;;;41.67;;
28960;SDS011;16068;42.896;20.868;2022-12-18T16:11:24;79.55;;;39.95;;
28960;SDS011;16068;42.896;20.868;2022-12-18T16:14:29;90.25;;;45.42;;
28960;SDS011;16068;42.896;20.868;2022-12-18T16:17:16;87.18;;;43.65;;
28960;SDS011;16068;42.896;20.868;2022-12-18T16:20:02;87.55;;;43.75;;
28960;SDS011;16068;42.896;20.868;2022-12-18T16:22:48;96.85;;;47.55;;
28960;SDS011;16068;42.896;20.868;2022-12-18T16:25:34;84.18;;;43.75;;
28960;SDS011;16068;42.896;20.868;2022-12-18T16:28:20;76.25;;;42.20;;
28960;SDS011;16068;42.896;20.868;2022-12-18T16:31:07;79.05;;;42.53;;
28960;SDS011;16068;42.896;20.868;2022-12-18T16:34:12;87.68;;;45.08;;
28960;SDS011;16068;42.896;20.868;2022-12-18T16:37:13;69.78;;;36.25;;
28960;SDS011;16068;42.896;20.868;2022-12-18T16:40:00;64.65;;;34.42;;
28960;SDS011;16068;42.896;20.868;2022-12-18T16:42:46;72.38;;;34.80;;
28960;SDS011;16068;42.896;20.868;2022-12-18T16:45:32;61.35;;;33.75;;
28960;SDS011;16068;42.896;20.868;2022-12-18T16:48:18;64.63;;;33.15;;
28960;SDS011;16068;42.896;20.868;2022-12-18T16:51:04;64.90;;;34.13;;
28960;SDS011;16068;42.896;20.868;2022-12-18T16:53:52;61.65;;;32.83;;
28960;SDS011;16068;42.896;20.868;2022-12-18T16:56:40;59.88;;;32.08;;
28960;SDS011;16068;42.896;20.868;2022-12-18T16:59:27;67.53;;;32.53;;
28960;SDS011;16068;42.896;20.868;2022-12-18T17:02:21;83.45;;;37.50;;
28960;SDS011;16068;42.896;20.868;2022-12-18T17:05:09;74.28;;;38.40;;
28960;SDS011;16068;42.896;20.868;2022-12-18T17:07:56;84.38;;;40.08;;
28960;SDS011;16068;42.896;20.868;2022-12-18T17:10:42;86.88;;;41.03;;
28960;SDS011;16068;42.896;20.868;2022-12-18T17:13:28;71.22;;;38.17;;
28960;SDS011;16068;42.896;20.868;2022-12-18T17:16:13;78.25;;;38.30;;
28960;SDS011;16068;42.896;20.868;2022-12-18T17:18:59;71.40;;;37.80;;
28960;SDS011;16068;42.896;20.868;2022-12-18T17:21:49;71.85;;;38.10;;
28960;SDS011;16068;42.896;20.868;2022-12-18T17:24:36;67.50;;;36.35;;
28960;SDS011;16068;42.896;20.868;2022-12-18T17:27:23;68.70;;;35.83;;
28960;SDS011;16068;42.896;20.868;2022-12-18T17:30:09;66.32;;;34.60;;
28960;SDS011;16068;42.896;20.868;2022-12-18T17:32:55;65.80;;;34.72;;
28960;SDS011;16068;42.896;20.868;2022-12-18T17:35:41;78.32;;;40.42;;
28960;SDS011;16068;42.896;20.868;2022-12-18T17:38:29;74.78;;;39.47;;
28960;SDS011;16068;42.896;20.868;2022-12-18T17:41:14;77.72;;;43.95;;
28960;SDS011;16068;42.896;20.868;2022-12-18T17:44:02;79.47;;;37.97;;
28960;SDS011;16068;42.896;20.868;2022-12-18T17:46:49;67.68;;;35.03;;
28960;SDS011;16068;42.896;20.868;2022-12-18T17:49:35;74.35;;;36.80;;
28960;SDS011;16068;42.896;20.868;2022-12-18T17:52:21;59.17;;;32.53;;
28960;SDS011;16068;42.896;20.868;2022-12-18T17:55:07;60.28;;;30.77;;
28960;SDS011;16068;42.896;20.868;2022-12-18T17:57:53;66.35;;;31.20;;
28960;SDS011;16068;42.896;20.868;2022-12-18T18:00:40;56.05;;;30.85;;
28960;SDS011;16068;42.896;20.868;2022-12-18T18:03:26;59.50;;;33.08;;
28960;SDS011;16068;42.896;20.868;2022-12-18T18:06:13;56.88;;;32.95;;
28960;SDS011;16068;42.896;20.868;2022-12-18T18:09:00;63.90;;;32.33;;